Terminal Aerodrome Forecast
Issued by NWS

Home | Current Version | Previous Version | Text Only | Print | Product List | Glossary On
Versions: 1 2 3 4 5 6 7 8 9 10 11 12 13 14
000
FTUS44 KOUN 211120
TAFPNC
TAF
KPNC 211120Z 2112/2212 35005KT 6SM -RA SCT020 BKN050 OVC070
      TEMPO 2112/2115 3SM -RA BR OVC020
     FM211600 07011KT 5SM -RA BR OVC009
     FM212000 05011KT 6SM -RA BR OVC007
     FM220300 34007KT P6SM OVC007=

USA.gov is the U.S. government's official web portal to all federal, state and local government web resources and services.